Alicia, Arkansas
Current Conditions -  °F | °C
As of 9:44 AM on Sunday 23 Nov 2014 (Local Time) from KM19 Reporting Station
Light Rain Light Rain  
Wind Chill: 57°   Ceiling: 500
Heat Index: 57°   Visibility: 2.5mi
Dew Point: 57°   Wind: 18mph
Humidity: 100%   Direction: 130°SE
Pressure: 29.6"   Gusts: NA
Location:  35.89°N, 91.08°W
Report Text: KM19 231544Z AUTO 13016KT 2 1/2SM -RA BR OVC005 14/14 A2960 RMK AO2 P0017
Loading
Personal Weather Stations






























Interactive Weather Map New forecast layout! Learn more

10-Day Weather Forecast

Advertisements
Track Severe Weather on mobile